Latest Weather Observations for Avalon

IDV60801

Issued at 7:31 pm EST Monday 25 May 2015 (issued every 30 minutes, with the page automatically refreshed every 10 minutes)

About weather observations | Map of weather stations | Latest weather observations for VIC | Other Formats
Station Details ID: 087113 Name: AVALON AIRPORT Lat: -38.03 Lon: 144.48 Height: 10.6 m
Data from the previous 72 hours. | See also: Recent months at Avalon
Date/Time
EST
Temp
°C
App
Temp
°C
Dew
Point
Rel
Hum
%
Delta-T
°C
Wind Press
QNH
hPa
Press
MSL
hPa
Rain
since 9 am
mm
Dir
 
Spd
km/h
Gust
km/h
Spd
kts
Gust
kts
25/07:30pm 8.8 8.1 6.9 88 0.9 CALM 0 0 0 0 1029.8 1029.8 0.0
25/07:00pm 9.6 7.7 7.7 88 0.9 ENE 7 9 4 5 1029.5 1029.5 0.0
25/06:30pm 11.1 9.1 8.7 85 1.2 ENE 9 11 5 6 1029.3 1029.3 0.0
25/06:00pm 11.6 9.7 9.2 85 1.2 ESE 9 11 5 6 1029.0 1029.0 0.0
25/05:30pm 11.3 9.2 8.3 82 1.5 ESE 9 11 5 6 1028.6 1028.6 0.0
25/05:00pm 12.3 10.2 8.2 76 2.0 ESE 9 11 5 6 1028.5 1028.5 0.0
25/04:30pm 14.7 12.5 9.3 70 2.8 E 11 13 6 7 1028.5 1028.5 0.0
25/04:00pm 15.0 12.6 10.0 72 2.6 ESE 13 19 7 10 1028.5 1028.5 0.0
25/03:30pm 15.1 11.9 10.1 72 2.6 ESE 17 20 9 11 1028.5 1028.5 0.0
25/03:00pm 15.2 12.0 10.0 71 2.7 SE 17 19 9 10 1028.5 1028.5 0.0
25/02:30pm 15.1 11.9 9.9 71 2.7 SE 17 19 9 10 1028.7 1028.7 0.0
25/02:00pm 14.9 12.3 9.5 70 2.8 SE 13 19 7 10 1028.9 1028.9 0.0
25/01:30pm 15.2 13.5 9.8 70 2.8 ESE 9 13 5 7 1029.2 1029.2 0.0
25/01:00pm 14.4 11.8 9.2 71 2.6 SE 13 17 7 9 1029.6 1029.6 0.0
25/12:30pm 14.6 13.2 9.4 71 2.6 ESE 7 11 4 6 1029.9 1029.9 0.0
25/12:00pm 13.4 11.4 8.7 73 2.3 SE 9 13 5 7 1030.4 1030.4 0.0
25/11:00am 11.5 10.0 8.4 81 1.5 SSE 6 7 3 4 1031.4 1031.4 0.0
25/10:30am 10.7 10.3 8.1 84 1.3 CALM 0 0 0 0 1031.4 1031.4 0.0
25/10:00am 9.7 7.9 7.8 88 0.9 N 7 9 4 5 1031.2 1031.2 0.0
25/09:30am 8.9 7.6 7.8 93 0.5 N 4 9 2 5 1031.3 1031.3 0.0
25/09:00am 7.5 6.7 6.6 94 0.4 CALM 0 0 0 0 1031.4 1031.4 0.0
25/08:30am 7.0 5.0 6.1 94 0.4 W 6 7 3 4 1031.4 1031.4 0.0
25/08:00am 6.5 3.8 5.8 95 0.3 N 9 11 5 6 1031.1 1031.1 0.0
25/07:30am 6.1 3.4 5.5 96 0.3 NW 9 11 5 6 1031.0 1031.0 0.0
25/07:00am 5.7 3.3 5.1 96 0.3 NW 7 7 4 4 1030.9 1030.9 0.0
25/06:30am 5.8 3.4 5.2 96 0.3 WNW 7 9 4 5 1030.8 1030.8 0.0
25/06:00am 5.4 1.8 4.8 96 0.3 NNW 13 15 7 8 1030.8 1030.8 0.0
25/05:30am 4.5 2.0 3.6 94 0.4 WNW 6 7 3 4 1030.1 1030.1 0.0
25/05:00am 4.7 2.2 3.8 94 0.4 SSW 6 9 3 5 1029.9 1029.9 0.0
25/04:30am 5.4 4.2 4.4 93 0.4 CALM 0 0 0 0 1029.9 1029.9 0.0
25/04:00am 5.8 4.6 4.6 92 0.5 CALM 0 0 0 0 1029.7 1029.7 0.0
25/03:30am 5.9 4.4 4.9 93 0.4 NE 2 9 1 5 1029.5 1029.5 0.0
25/03:00am 5.2 3.9 4.2 93 0.4 CALM 0 0 0 0 1030.0 1030.0 0.0
25/02:30am 5.8 4.6 4.6 92 0.5 CALM 0 0 0 0 1030.2 1030.2 0.0
25/02:00am 5.6 3.2 4.4 92 0.5 NE 6 9 3 5 1030.3 1030.3 0.0
25/01:30am 5.5 4.2 4.2 91 0.6 CALM 0 0 0 0 1030.2 1030.2 0.0
25/01:00am 5.9 4.6 4.2 89 0.7 CALM 0 0 0 0 1030.2 1030.2 0.0
25/12:30am 6.1 3.7 4.3 88 0.8 NNW 6 7 3 4 1030.6 1030.6 0.0
25/12:00am 5.5 2.8 3.7 88 0.7 N 7 11 4 6 1030.7 1030.7 0.0
 
Date/Time
EST
Temp
°C
App
Temp
°C
Dew
Point
Rel
Hum
%
Delta-T
°C
Wind Press
QNH
hPa
Press
MSL
hPa
Rain
since 9 am
mm
Dir
 
Spd
km/h
Gust
km/h
Spd
kts
Gust
kts
24/11:30pm 6.7 4.2 5.0 89 0.7 NNE 7 7 4 4 1030.6 1030.6 0.0
24/11:00pm 6.5 5.4 5.0 90 0.6 CALM 0 0 0 0 1030.8 1030.8 0.0
24/10:30pm 6.3 4.8 4.8 90 0.7 NNE 2 7 1 4 1030.8 1030.8 0.0
24/10:00pm 6.0 3.5 4.5 90 0.6 N 7 9 4 5 1030.9 1030.9 0.0
24/09:30pm 6.2 4.9 4.0 86 0.9 CALM 0 0 0 0 1030.9 1030.9 0.0
24/09:00pm 6.6 5.3 4.1 84 1.1 CALM 0 0 0 0 1030.7 1030.7 0.0
24/08:30pm 7.6 5.1 4.9 83 1.2 N 7 7 4 4 1030.8 1030.8 0.0
24/08:00pm 7.1 4.6 4.8 85 1.0 N 7 9 4 5 1030.6 1030.6 0.0
24/07:30pm 8.0 4.9 5.5 84 1.1 N 11 13 6 7 1030.7 1030.7 0.0
24/07:00pm 8.3 5.3 5.9 85 1.1 NNE 11 13 6 7 1030.6 1030.6 0.0
24/06:30pm 8.4 7.5 6.0 85 1.1 CALM 0 4 0 2 1030.5 1030.5 0.0
24/06:00pm 8.7 6.5 6.3 85 1.1 N 7 9 4 5 1030.1 1030.1 0.0
24/05:30pm 9.6 7.4 6.3 80 1.5 NE 7 7 4 4 1029.8 1029.8 0.0
24/05:00pm 10.4 8.3 6.5 77 1.8 ENE 7 9 4 5 1029.9 1029.9 0.0
24/04:30pm 11.0 8.7 7.3 78 1.8 E 9 9 5 5 1029.7 1029.7 0.0
24/04:00pm 11.6 9.3 7.3 75 2.1 E 9 11 5 6 1030.0 1030.0 0.0
24/03:30pm 12.0 9.6 7.1 72 2.4 ESE 9 13 5 7 1029.9 1029.9 0.0
24/03:00pm 12.1 9.8 7.4 73 2.3 ESE 9 11 5 6 1029.8 1029.8 0.0
24/02:30pm 12.2 9.5 7.5 73 2.3 SE 11 15 6 8 1029.7 1029.7 0.0
24/02:00pm 12.1 9.4 7.2 72 2.3 SE 11 15 6 8 1029.6 1029.6 0.0
24/01:30pm 12.6 10.6 6.4 66 2.9 E 6 9 3 5 1029.9 1029.9 0.0
24/01:00pm 12.5 11.3 6.3 66 2.9 ENE 2 7 1 4 1030.2 1030.2 0.0
24/12:30pm 11.3 9.2 6.0 70 2.5 NNE 6 9 3 5 1030.5 1030.5 0.0
24/12:00pm 9.6 7.3 5.6 76 1.8 NE 7 11 4 6 1031.1 1031.1 0.0
24/11:30am 9.4 7.1 5.8 78 1.6 NNE 7 9 4 5 1031.5 1031.5 0.0
24/11:00am 9.0 5.9 5.4 78 1.6 NNE 11 13 6 7 1031.9 1031.9 0.0
24/10:30am 8.3 5.2 5.4 82 1.3 NNE 11 15 6 8 1031.9 1031.9 0.0
24/10:00am 7.9 4.8 5.4 84 1.1 NNE 11 15 6 8 1032.0 1032.0 0.0
24/09:30am 7.2 3.7 5.3 88 0.8 NNE 13 17 7 9 1032.0 1032.0 0.0
24/09:00am 6.1 2.4 4.7 91 0.6 N 13 15 7 8 1032.2 1032.2 0.0
24/08:30am 6.5 3.4 5.5 93 0.4 N 11 15 6 8 1031.9 1031.9 -
24/08:08am 5.0 1.9 3.7 91 0.5 N 9 11 5 6 1031.7 1031.7 -
24/08:00am 4.9 1.8 3.4 90 0.6 N 9 11 5 6 1031.7 1031.7 -
24/07:30am 6.3 3.4 4.6 89 0.7 N 9 13 5 7 1031.5 1031.5 -
24/07:00am 7.0 3.4 5.2 88 0.8 N 13 15 7 8 1031.4 1031.4 -
24/06:30am 7.2 3.3 5.3 88 0.8 N 15 19 8 10 1030.9 1030.9 -
24/06:00am 7.3 4.2 5.4 88 0.8 N 11 13 6 7 1030.8 1030.8 -
24/05:30am 7.4 3.8 5.2 86 1.0 NNE 13 17 7 9 1030.5 1030.5 -
24/05:00am 7.7 4.6 5.5 86 1.0 NE 11 15 6 8 1030.6 1030.6 -
24/04:54am 7.7 4.2 5.5 86 1.0 NE 13 17 7 9 1030.4 1030.4 -
24/04:30am 7.7 4.7 5.8 88 0.9 ENE 11 17 6 9 1030.3 1030.3 -
24/04:00am 7.7 5.1 6.0 89 0.8 NNE 9 15 5 8 1030.5 1030.5 -
24/03:30am 7.8 5.2 6.1 89 0.8 N 9 13 5 7 1030.5 1030.5 -
24/03:00am 7.8 5.2 6.1 89 0.8 NNE 9 13 5 7 1030.7 1030.7 0.0
24/02:30am 7.7 5.4 5.8 88 0.9 NNE 7 11 4 6 1030.5 1030.5 -
24/02:00am 8.0 6.0 6.1 88 0.9 NNE 6 7 3 4 1030.6 1030.6 -
24/01:30am 8.3 5.8 6.6 89 0.8 NE 9 13 5 7 1030.8 1030.8 -
24/01:00am 8.0 6.5 6.8 92 0.5 NE 4 11 2 6 1031.1 1031.1 -
24/12:30am 7.4 6.6 6.3 93 0.5 CALM 0 0 0 0 1031.4 1031.4 -
24/12:00am 6.7 5.3 5.7 93 0.4 WNW 2 6 1 3 1031.6 1031.6 -
 
Date/Time
EST
Temp
°C
App
Temp
°C
Dew
Point
Rel
Hum
%
Delta-T
°C
Wind Press
QNH
hPa
Press
MSL
hPa
Rain
since 9 am
mm
Dir
 
Spd
km/h
Gust
km/h
Spd
kts
Gust
kts
23/11:30pm 6.1 3.3 5.2 94 0.4 NNW 9 9 5 5 1031.7 1031.7 -
23/11:00pm 5.7 3.2 4.7 93 0.4 N 7 11 4 6 1031.6 1031.6 -
23/10:30pm 5.4 4.1 4.1 91 0.6 CALM 0 0 0 0 1031.9 1031.9 -
23/10:00pm 6.0 4.7 4.0 87 0.8 CALM 0 0 0 0 1032.2 1032.2 -
23/09:30pm 8.1 7.1 5.6 84 1.1 CALM 0 0 0 0 1032.1 1032.1 -
23/09:00pm 8.0 5.8 5.1 82 1.3 SE 6 9 3 5 1032.2 1032.2 -
23/08:30pm 8.2 5.8 5.1 81 1.4 SE 7 9 4 5 1032.2 1032.2 -
23/08:00pm 9.9 7.3 5.9 76 1.8 S 9 17 5 9 1032.2 1032.2 -
23/07:30pm 10.8 8.9 6.6 75 2.0 ESE 6 11 3 6 1032.1 1032.1 -
23/07:00pm 10.7 8.6 6.5 75 2.0 NNE 7 9 4 5 1031.8 1031.8 -
23/06:30pm 10.9 8.8 6.6 75 2.0 E 7 9 4 5 1031.9 1031.9 -
23/06:00pm 11.1 8.6 6.5 73 2.1 E 9 13 5 7 1031.8 1031.8 -
23/05:30pm 11.0 8.9 6.6 74 2.1 SE 7 11 4 6 1031.7 1031.7 -
23/05:00pm 11.2 8.3 6.5 73 2.2 SSE 11 15 6 8 1031.7 1031.7 -
23/04:30pm - - - - - - - - - - - - -
23/04:00pm 11.7 8.1 6.8 72 2.3 SSE 15 19 8 10 1031.7 1031.7 0.0
23/03:30pm 12.1 8.6 7.2 72 2.4 SSW 15 19 8 10 1031.7 1031.7 0.0
23/03:00pm 12.4 9.7 7.3 71 2.4 SSW 11 20 6 11 1031.7 1031.7 0.0
23/02:30pm 12.6 10.6 7.1 69 2.7 SW 7 11 4 6 1031.8 1031.8 0.0
23/02:00pm 12.5 10.1 6.8 68 2.7 S 9 17 5 9 1031.9 1031.9 0.0
23/01:30pm 12.8 10.0 7.0 68 2.8 S 11 19 6 10 1032.0 1032.0 0.0
23/01:00pm 12.5 9.0 7.0 69 2.6 S 15 20 8 11 1032.2 1032.2 0.0
23/12:30pm 12.7 9.9 7.0 68 2.7 S 11 17 6 9 1032.4 1032.4 0.0
23/12:00pm 12.3 9.8 6.4 67 2.8 S 9 19 5 10 1032.9 1032.9 0.0
23/11:30am 12.5 11.7 6.3 66 2.9 CALM 0 7 0 4 1033.3 1033.3 0.0
23/11:00am 12.5 10.1 6.8 68 2.7 SE 9 15 5 8 1033.4 1033.4 0.0
23/10:30am 12.1 10.9 6.4 68 2.7 SSW 2 9 1 5 1033.7 1033.7 0.0
23/10:00am 11.5 8.9 6.0 69 2.5 S 9 19 5 10 1033.7 1033.7 0.0
23/09:30am 11.5 9.4 6.6 72 2.3 WSW 7 11 4 6 1033.6 1033.6 0.0
23/09:00am 10.9 10.1 6.6 75 2.0 CALM 0 0 0 0 1033.5 1033.5 0.0
23/08:30am 10.4 9.3 6.9 79 1.7 WNW 2 7 1 4 1033.4 1033.4 0.0
23/08:00am 10.3 9.5 6.3 76 1.8 CALM 0 0 0 0 1033.1 1033.1 0.0
23/07:30am 9.8 7.8 6.2 78 1.7 N 6 7 3 4 1032.9 1032.9 0.0
23/07:00am 10.0 9.0 5.8 75 1.9 CALM 0 0 0 0 1032.7 1032.7 0.0
23/06:30am 10.8 9.8 5.8 71 2.3 CALM 0 0 0 0 1032.5 1032.5 0.0
23/06:00am 10.3 8.2 5.7 73 2.1 SSE 6 7 3 4 1032.4 1032.4 0.0
23/05:30am 10.1 7.8 5.9 75 1.9 SSE 7 9 4 5 1032.3 1032.3 0.0
23/05:00am 9.9 8.5 5.7 75 1.9 S 2 9 1 5 1032.1 1032.1 0.0
23/04:30am 10.1 7.4 5.5 73 2.1 SSE 9 13 5 7 1031.9 1031.9 0.0
23/04:00am 10.5 7.1 6.1 74 2.0 SSE 13 17 7 9 1031.7 1031.7 0.0
23/03:30am 10.1 7.5 5.9 75 1.9 SSE 9 15 5 8 1031.8 1031.8 0.0
23/03:00am 10.0 7.4 6.0 76 1.8 SSE 9 11 5 6 1032.0 1032.0 0.0
23/02:30am 10.2 7.6 6.0 75 1.9 S 9 13 5 7 1032.3 1032.3 0.0
23/02:00am 10.4 8.2 6.0 74 2.0 S 7 13 4 7 1032.2 1032.2 0.0
23/01:30am 10.1 7.5 6.1 76 1.9 SSW 9 11 5 6 1032.2 1032.2 0.0
23/01:00am 10.3 7.2 5.7 73 2.1 S 11 17 6 9 1032.3 1032.3 0.0
23/12:30am 11.1 7.8 6.5 73 2.2 S 13 19 7 10 1032.4 1032.4 0.0
23/12:00am 11.0 7.4 6.6 74 2.1 SSW 15 19 8 10 1032.6 1032.6 0.0
 
Date/Time
EST
Temp
°C
App
Temp
°C
Dew
Point
Rel
Hum
%
Delta-T
°C
Wind Press
QNH
hPa
Press
MSL
hPa
Rain
since 9 am
mm
Dir
 
Spd
km/h
Gust
km/h
Spd
kts
Gust
kts
22/11:30pm 11.2 7.3 6.9 75 2.0 SSW 17 22 9 12 1032.5 1032.5 0.0
22/11:00pm 10.9 8.5 6.8 76 1.9 SSW 9 11 5 6 1032.5 1032.5 0.0
22/10:30pm 11.0 8.1 6.4 73 2.2 SSE 11 15 6 8 1032.5 1032.5 0.0
22/10:00pm 11.1 7.8 6.3 72 2.2 SSW 13 17 7 9 1032.6 1032.6 0.0
22/09:30pm 11.2 7.0 5.7 69 2.5 SSE 17 24 9 13 1032.3 1032.3 0.0
22/09:00pm 11.2 6.7 5.9 70 2.4 SSW 19 22 10 12 1032.4 1032.4 0.0
22/08:30pm 11.3 7.7 6.6 73 2.2 SSW 15 20 8 11 1032.1 1032.1 0.0
22/08:00pm 11.2 7.8 5.9 70 2.4 SSE 13 17 7 9 1032.1 1032.1 0.0

Other Formats:

Comma delimited format used in spreadsheet applications
http://www.bom.gov.au/fwo/IDV60801/IDV60801.94854.axf

JavaScript Object Notation format (JSON) in row-major order
http://www.bom.gov.au/fwo/IDV60801/IDV60801.94854.json